sensor_id;sensor_type;location;lat;lon;timestamp;pressure;altitude;pressure_sealevel;temperature;humidity
60719;BME280;46567;51.660;5.824;2023-03-14T00:00:26;98880.0;;;13.5;77.5
60719;BME280;46567;51.660;5.824;2023-03-14T00:05:26;98870.0;;;13.5;78.5
60719;BME280;46567;51.660;5.824;2023-03-14T00:10:26;98870.0;;;13.3;80.0
60719;BME280;46567;51.660;5.824;2023-03-14T00:15:26;98860.0;;;13.2;80.5
60719;BME280;46567;51.660;5.824;2023-03-14T00:20:27;98860.0;;;13.1;81.0
60719;BME280;46567;51.660;5.824;2023-03-14T00:25:26;98860.0;;;13.0;81.0
60719;BME280;46567;51.660;5.824;2023-03-14T00:30:26;98870.0;;;13.0;81.0
60719;BME280;46567;51.660;5.824;2023-03-14T00:35:26;98880.0;;;13.0;81.0
60719;BME280;46567;51.660;5.824;2023-03-14T00:40:26;98880.0;;;12.9;81.5
60719;BME280;46567;51.660;5.824;2023-03-14T00:45:26;98880.0;;;12.9;81.5
60719;BME280;46567;51.660;5.824;2023-03-14T00:50:26;98880.0;;;12.8;81.5
60719;BME280;46567;51.660;5.824;2023-03-14T00:55:26;98890.0;;;12.8;81.0
60719;BME280;46567;51.660;5.824;2023-03-14T01:00:26;98890.0;;;12.7;79.5
60719;BME280;46567;51.660;5.824;2023-03-14T01:05:26;98900.0;;;12.5;79.0
60719;BME280;46567;51.660;5.824;2023-03-14T01:10:26;98900.0;;;12.5;78.5
60719;BME280;46567;51.660;5.824;2023-03-14T01:15:26;98900.0;;;12.5;78.0
60719;BME280;46567;51.660;5.824;2023-03-14T01:20:26;98890.0;;;12.5;77.5
60719;BME280;46567;51.660;5.824;2023-03-14T01:25:26;98890.0;;;12.5;77.5
60719;BME280;46567;51.660;5.824;2023-03-14T01:30:26;98900.0;;;12.5;77.5
60719;BME280;46567;51.660;5.824;2023-03-14T01:35:26;98890.0;;;12.5;77.0
60719;BME280;46567;51.660;5.824;2023-03-14T01:40:26;98870.0;;;12.5;77.0
60719;BME280;46567;51.660;5.824;2023-03-14T01:46:22;98860.0;;;12.5;76.5
60719;BME280;46567;51.660;5.824;2023-03-14T01:50:26;98860.0;;;12.5;76.5
60719;BME280;46567;51.660;5.824;2023-03-14T01:55:26;98860.0;;;12.5;76.5
60719;BME280;46567;51.660;5.824;2023-03-14T02:00:26;98850.0;;;12.5;76.0
60719;BME280;46567;51.660;5.824;2023-03-14T02:05:28;98840.0;;;12.5;76.0
60719;BME280;46567;51.660;5.824;2023-03-14T02:10:28;98850.0;;;12.5;76.0
60719;BME280;46567;51.660;5.824;2023-03-14T02:15:26;98830.0;;;12.5;76.0
60719;BME280;46567;51.660;5.824;2023-03-14T02:20:47;98840.0;;;12.5;76.0
60719;BME280;46567;51.660;5.824;2023-03-14T02:25:31;98850.0;;;12.5;76.0
60719;BME280;46567;51.660;5.824;2023-03-14T02:30:29;98850.0;;;12.5;76.0
60719;BME280;46567;51.660;5.824;2023-03-14T02:35:29;98840.0;;;12.5;76.0
60719;BME280;46567;51.660;5.824;2023-03-14T02:40:26;98840.0;;;12.5;76.0
60719;BME280;46567;51.660;5.824;2023-03-14T02:45:42;98840.0;;;12.5;76.0
60719;BME280;46567;51.660;5.824;2023-03-14T02:50:33;98840.0;;;12.5;76.0
60719;BME280;46567;51.660;5.824;2023-03-14T02:55:26;98830.0;;;12.5;76.0
60719;BME280;46567;51.660;5.824;2023-03-14T03:00:26;98830.0;;;12.6;76.0
60719;BME280;46567;51.660;5.824;2023-03-14T03:05:26;98830.0;;;12.5;76.5
60719;BME280;46567;51.660;5.824;2023-03-14T03:10:26;98820.0;;;12.5;76.5
60719;BME280;46567;51.660;5.824;2023-03-14T03:15:27;98840.0;;;12.5;77.0
60719;BME280;46567;51.660;5.824;2023-03-14T03:20:26;98830.0;;;12.5;77.0
60719;BME280;46567;51.660;5.824;2023-03-14T03:25:27;98840.0;;;12.4;77.5
60719;BME280;46567;51.660;5.824;2023-03-14T03:30:26;98820.0;;;12.4;78.0
60719;BME280;46567;51.660;5.824;2023-03-14T03:35:26;98820.0;;;12.3;78.0
60719;BME280;46567;51.660;5.824;2023-03-14T03:40:26;98820.0;;;12.3;78.0
60719;BME280;46567;51.660;5.824;2023-03-14T03:45:26;98830.0;;;12.3;78.5
60719;BME280;46567;51.660;5.824;2023-03-14T03:50:26;98830.0;;;12.3;78.5
60719;BME280;46567;51.660;5.824;2023-03-14T03:55:26;98810.0;;;12.3;78.5
60719;BME280;46567;51.660;5.824;2023-03-14T04:00:26;98810.0;;;12.3;78.5
60719;BME280;46567;51.660;5.824;2023-03-14T04:05:26;98820.0;;;12.3;78.5
60719;BME280;46567;51.660;5.824;2023-03-14T04:10:26;98800.0;;;12.3;78.5
60719;BME280;46567;51.660;5.824;2023-03-14T04:15:26;98800.0;;;12.2;78.5
60719;BME280;46567;51.660;5.824;2023-03-14T04:20:26;98780.0;;;12.2;78.5
60719;BME280;46567;51.660;5.824;2023-03-14T04:25:26;98810.0;;;12.2;78.5
60719;BME280;46567;51.660;5.824;2023-03-14T04:30:26;98800.0;;;12.1;78.5
60719;BME280;46567;51.660;5.824;2023-03-14T04:35:26;98800.0;;;12.1;78.5
60719;BME280;46567;51.660;5.824;2023-03-14T04:40:26;98790.0;;;12.1;78.5
60719;BME280;46567;51.660;5.824;2023-03-14T04:45:26;98790.0;;;12.0;78.5
60719;BME280;46567;51.660;5.824;2023-03-14T04:50:26;98790.0;;;11.9;78.5
60719;BME280;46567;51.660;5.824;2023-03-14T04:55:26;98780.0;;;11.8;79.0
60719;BME280;46567;51.660;5.824;2023-03-14T05:00:26;98770.0;;;11.8;79.5
60719;BME280;46567;51.660;5.824;2023-03-14T05:05:26;98770.0;;;11.8;80.0
60719;BME280;46567;51.660;5.824;2023-03-14T05:10:26;98770.0;;;11.7;80.5
60719;BME280;46567;51.660;5.824;2023-03-14T05:15:26;98780.0;;;11.7;81.0
60719;BME280;46567;51.660;5.824;2023-03-14T05:20:26;98780.0;;;11.7;82.0
60719;BME280;46567;51.660;5.824;2023-03-14T05:25:26;98780.0;;;11.6;83.0
60719;BME280;46567;51.660;5.824;2023-03-14T05:30:26;98780.0;;;11.6;84.0
60719;BME280;46567;51.660;5.824;2023-03-14T05:35:26;98780.0;;;11.5;84.5
60719;BME280;46567;51.660;5.824;2023-03-14T05:40:26;98780.0;;;11.5;85.0
60719;BME280;46567;51.660;5.824;2023-03-14T05:45:26;98770.0;;;11.4;85.5
60719;BME280;46567;51.660;5.824;2023-03-14T05:50:26;98770.0;;;11.4;86.0
60719;BME280;46567;51.660;5.824;2023-03-14T05:55:26;98770.0;;;11.3;86.5
60719;BME280;46567;51.660;5.824;2023-03-14T06:00:26;98760.0;;;11.3;87.5
60719;BME280;46567;51.660;5.824;2023-03-14T06:05:26;98750.0;;;11.3;87.5
60719;BME280;46567;51.660;5.824;2023-03-14T06:10:26;98750.0;;;11.3;87.5
60719;BME280;46567;51.660;5.824;2023-03-14T06:15:26;98750.0;;;11.3;88.0
60719;BME280;46567;51.660;5.824;2023-03-14T06:20:26;98740.0;;;11.3;88.0
60719;BME280;46567;51.660;5.824;2023-03-14T06:25:26;98740.0;;;11.4;88.0
60719;BME280;46567;51.660;5.824;2023-03-14T06:30:26;98750.0;;;11.4;88.0
60719;BME280;46567;51.660;5.824;2023-03-14T06:35:26;98750.0;;;11.5;88.5
60719;BME280;46567;51.660;5.824;2023-03-14T06:40:26;98760.0;;;11.5;88.5
60719;BME280;46567;51.660;5.824;2023-03-14T06:45:26;98770.0;;;11.5;89.0
60719;BME280;46567;51.660;5.824;2023-03-14T06:50:26;98760.0;;;11.6;89.0
60719;BME280;46567;51.660;5.824;2023-03-14T06:55:26;98770.0;;;11.6;89.5
60719;BME280;46567;51.660;5.824;2023-03-14T07:00:26;98760.0;;;11.6;89.5
60719;BME280;46567;51.660;5.824;2023-03-14T07:05:26;98770.0;;;11.7;90.0
60719;BME280;46567;51.660;5.824;2023-03-14T07:10:26;98770.0;;;11.8;90.0
60719;BME280;46567;51.660;5.824;2023-03-14T07:15:26;98790.0;;;11.9;90.0
60719;BME280;46567;51.660;5.824;2023-03-14T07:20:26;98790.0;;;12.0;90.0
60719;BME280;46567;51.660;5.824;2023-03-14T07:25:26;98790.0;;;12.0;90.0
60719;BME280;46567;51.660;5.824;2023-03-14T07:30:26;98800.0;;;12.1;90.0
60719;BME280;46567;51.660;5.824;2023-03-14T07:35:26;98800.0;;;12.1;90.5
60719;BME280;46567;51.660;5.824;2023-03-14T07:40:26;98810.0;;;12.1;90.5
60719;BME280;46567;51.660;5.824;2023-03-14T07:45:26;98830.0;;;12.0;91.0
60719;BME280;46567;51.660;5.824;2023-03-14T07:50:26;98900.0;;;11.8;88.5
60719;BME280;46567;51.660;5.824;2023-03-14T07:55:26;98920.0;;;11.2;87.0
60719;BME280;46567;51.660;5.824;2023-03-14T08:00:26;98950.0;;;10.8;88.0
60719;BME280;46567;51.660;5.824;2023-03-14T08:05:26;98970.0;;;10.6;88.5
60719;BME280;46567;51.660;5.824;2023-03-14T08:10:26;98990.0;;;10.3;89.0
60719;BME280;46567;51.660;5.824;2023-03-14T08:15:27;98990.0;;;10.1;89.5
60719;BME280;46567;51.660;5.824;2023-03-14T08:25:28;99020.0;;;9.9;90.5
60719;BME280;46567;51.660;5.824;2023-03-14T08:30:26;99050.0;;;9.8;91.0
60719;BME280;46567;51.660;5.824;2023-03-14T08:35:27;99050.0;;;9.8;91.5
60719;BME280;46567;51.660;5.824;2023-03-14T08:40:26;99070.0;;;9.9;91.5
60719;BME280;46567;51.660;5.824;2023-03-14T08:45:26;99090.0;;;9.9;92.0
60719;BME280;46567;51.660;5.824;2023-03-14T08:50:26;99110.0;;;9.9;92.0
60719;BME280;46567;51.660;5.824;2023-03-14T08:55:26;99130.0;;;10.0;92.0
60719;BME280;46567;51.660;5.824;2023-03-14T09:00:26;99140.0;;;10.1;92.0
60719;BME280;46567;51.660;5.824;2023-03-14T09:05:26;99150.0;;;10.1;91.5
60719;BME280;46567;51.660;5.824;2023-03-14T09:10:26;99170.0;;;10.0;91.0
60719;BME280;46567;51.660;5.824;2023-03-14T09:15:26;99190.0;;;10.0;91.0
60719;BME280;46567;51.660;5.824;2023-03-14T09:20:26;99220.0;;;9.9;90.5
60719;BME280;46567;51.660;5.824;2023-03-14T09:25:26;99250.0;;;9.6;88.5
60719;BME280;46567;51.660;5.824;2023-03-14T09:30:26;99290.0;;;9.1;88.5
60719;BME280;46567;51.660;5.824;2023-03-14T09:35:27;99310.0;;;8.8;89.0
60719;BME280;46567;51.660;5.824;2023-03-14T09:40:31;99330.0;;;8.7;89.5
60719;BME280;46567;51.660;5.824;2023-03-14T09:45:29;99360.0;;;8.6;90.0
60719;BME280;46567;51.660;5.824;2023-03-14T09:50:31;99380.0;;;8.6;89.5
60719;BME280;46567;51.660;5.824;2023-03-14T09:55:26;99400.0;;;8.6;88.5
60719;BME280;46567;51.660;5.824;2023-03-14T10:00:28;99420.0;;;8.8;89.5
60719;BME280;46567;51.660;5.824;2023-03-14T10:05:26;99440.0;;;9.1;88.5
60719;BME280;46567;51.660;5.824;2023-03-14T10:10:26;99470.0;;;9.1;86.5
60719;BME280;46567;51.660;5.824;2023-03-14T10:15:31;99490.0;;;9.2;86.0
60719;BME280;46567;51.660;5.824;2023-03-14T10:20:31;99510.0;;;9.1;84.5
60719;BME280;46567;51.660;5.824;2023-03-14T10:25:29;99540.0;;;9.0;83.5
60719;BME280;46567;51.660;5.824;2023-03-14T10:30:34;99570.0;;;8.9;82.5
60719;BME280;46567;51.660;5.824;2023-03-14T10:35:26;99590.0;;;8.9;82.0
60719;BME280;46567;51.660;5.824;2023-03-14T10:40:28;99610.0;;;8.9;81.5
60719;BME280;46567;51.660;5.824;2023-03-14T10:45:37;99630.0;;;9.0;80.0
60719;BME280;46567;51.660;5.824;2023-03-14T10:50:31;99650.0;;;9.1;79.0
60719;BME280;46567;51.660;5.824;2023-03-14T10:55:26;99660.0;;;9.1;78.5
60719;BME280;46567;51.660;5.824;2023-03-14T11:00:26;99680.0;;;9.3;79.0
60719;BME280;46567;51.660;5.824;2023-03-14T11:05:28;99690.0;;;9.6;78.5
60719;BME280;46567;51.660;5.824;2023-03-14T11:10:39;99700.0;;;9.7;76.5
60719;BME280;46567;51.660;5.824;2023-03-14T11:15:32;99730.0;;;9.7;77.0
60719;BME280;46567;51.660;5.824;2023-03-14T11:20:46;99750.0;;;9.8;75.5
60719;BME280;46567;51.660;5.824;2023-03-14T11:25:41;99770.0;;;9.9;76.5
60719;BME280;46567;51.660;5.824;2023-03-14T11:30:50;99820.0;;;9.6;75.0
60719;BME280;46567;51.660;5.824;2023-03-14T11:35:30;99830.0;;;8.9;76.5
60719;BME280;46567;51.660;5.824;2023-03-14T11:40:27;99850.0;;;8.5;78.0
60719;BME280;46567;51.660;5.824;2023-03-14T11:45:30;99860.0;;;8.4;79.5
60719;BME280;46567;51.660;5.824;2023-03-14T11:50:30;99860.0;;;8.5;80.0
60719;BME280;46567;51.660;5.824;2023-03-14T11:55:30;99880.0;;;8.7;79.5
60719;BME280;46567;51.660;5.824;2023-03-14T12:00:26;99890.0;;;8.8;79.5
60719;BME280;46567;51.660;5.824;2023-03-14T12:05:48;99910.0;;;8.9;79.5
60719;BME280;46567;51.660;5.824;2023-03-14T12:10:27;99930.0;;;8.8;79.0
60719;BME280;46567;51.660;5.824;2023-03-14T12:15:26;99940.0;;;8.6;80.5
60719;BME280;46567;51.660;5.824;2023-03-14T12:20:26;99940.0;;;8.6;79.5
60719;BME280;46567;51.660;5.824;2023-03-14T12:25:32;99960.0;;;8.8;78.5
60719;BME280;46567;51.660;5.824;2023-03-14T12:30:28;99970.0;;;9.0;78.5
60719;BME280;46567;51.660;5.824;2023-03-14T12:35:34;99990.0;;;9.2;75.5
60719;BME280;46567;51.660;5.824;2023-03-14T12:40:32;99990.0;;;9.3;73.5
60719;BME280;46567;51.660;5.824;2023-03-14T12:45:28;100000.0;;;9.5;73.0
60719;BME280;46567;51.660;5.824;2023-03-14T12:50:32;99990.0;;;9.7;72.0
60719;BME280;46567;51.660;5.824;2023-03-14T12:55:51;100010.0;;;10.1;71.0
60719;BME280;46567;51.660;5.824;2023-03-14T13:00:34;100010.0;;;10.3;67.5
60719;BME280;46567;51.660;5.824;2023-03-14T13:05:26;100030.0;;;10.4;65.0
60719;BME280;46567;51.660;5.824;2023-03-14T13:10:27;100040.0;;;10.5;64.0
60719;BME280;46567;51.660;5.824;2023-03-14T13:15:29;100060.0;;;10.5;62.0
60719;BME280;46567;51.660;5.824;2023-03-14T13:20:31;100070.0;;;10.3;61.0
60719;BME280;46567;51.660;5.824;2023-03-14T13:25:28;100080.0;;;10.2;61.5
60719;BME280;46567;51.660;5.824;2023-03-14T13:30:27;100100.0;;;10.4;61.0
60719;BME280;46567;51.660;5.824;2023-03-14T13:35:29;100100.0;;;10.4;60.0
60719;BME280;46567;51.660;5.824;2023-03-14T13:40:32;100110.0;;;10.5;58.0
60719;BME280;46567;51.660;5.824;2023-03-14T13:45:26;100120.0;;;10.6;58.0
60719;BME280;46567;51.660;5.824;2023-03-14T13:50:26;100130.0;;;10.7;57.0
60719;BME280;46567;51.660;5.824;2023-03-14T13:55:29;100150.0;;;10.8;57.0
60719;BME280;46567;51.660;5.824;2023-03-14T14:00:27;100160.0;;;11.0;57.0
60719;BME280;46567;51.660;5.824;2023-03-14T14:05:28;100180.0;;;11.2;54.5
60719;BME280;46567;51.660;5.824;2023-03-14T14:10:28;100180.0;;;11.2;50.5
60719;BME280;46567;51.660;5.824;2023-03-14T14:15:28;100200.0;;;11.3;53.0
60719;BME280;46567;51.660;5.824;2023-03-14T14:20:28;100220.0;;;11.1;50.5
60719;BME280;46567;51.660;5.824;2023-03-14T14:25:27;100230.0;;;10.8;51.0
60719;BME280;46567;51.660;5.824;2023-03-14T14:30:33;100260.0;;;10.8;52.0
60719;BME280;46567;51.660;5.824;2023-03-14T14:35:35;100270.0;;;10.6;51.0
60719;BME280;46567;51.660;5.824;2023-03-14T14:40:28;100280.0;;;10.6;51.0
60719;BME280;46567;51.660;5.824;2023-03-14T14:45:27;100300.0;;;10.4;51.5
60719;BME280;46567;51.660;5.824;2023-03-14T14:50:33;100310.0;;;10.5;52.0
60719;BME280;46567;51.660;5.824;2023-03-14T14:55:31;100320.0;;;10.6;51.0
60719;BME280;46567;51.660;5.824;2023-03-14T15:00:27;100340.0;;;10.6;50.5
60719;BME280;46567;51.660;5.824;2023-03-14T15:05:27;100350.0;;;10.5;51.0
60719;BME280;46567;51.660;5.824;2023-03-14T15:10:26;100360.0;;;10.5;51.5
60719;BME280;46567;51.660;5.824;2023-03-14T15:15:26;100370.0;;;10.4;51.0
60719;BME280;46567;51.660;5.824;2023-03-14T15:20:26;100390.0;;;10.3;51.5
60719;BME280;46567;51.660;5.824;2023-03-14T15:25:26;100400.0;;;10.1;51.0
60719;BME280;46567;51.660;5.824;2023-03-14T15:30:26;100420.0;;;9.9;51.5
60719;BME280;46567;51.660;5.824;2023-03-14T15:35:26;100430.0;;;9.6;52.0
60719;BME280;46567;51.660;5.824;2023-03-14T15:40:26;100440.0;;;9.5;52.0
60719;BME280;46567;51.660;5.824;2023-03-14T15:45:26;100460.0;;;9.3;52.5
60719;BME280;46567;51.660;5.824;2023-03-14T15:50:27;100470.0;;;9.2;53.0
60719;BME280;46567;51.660;5.824;2023-03-14T15:55:26;100480.0;;;9.0;53.0
60719;BME280;46567;51.660;5.824;2023-03-14T16:00:26;100500.0;;;8.9;53.5
60719;BME280;46567;51.660;5.824;2023-03-14T16:05:26;100510.0;;;8.7;53.0
60719;BME280;46567;51.660;5.824;2023-03-14T16:10:26;100530.0;;;8.6;53.0
60719;BME280;46567;51.660;5.824;2023-03-14T16:15:26;100530.0;;;8.5;53.5
60719;BME280;46567;51.660;5.824;2023-03-14T16:20:26;100540.0;;;8.4;53.0
60719;BME280;46567;51.660;5.824;2023-03-14T16:25:26;100540.0;;;8.3;53.0
60719;BME280;46567;51.660;5.824;2023-03-14T16:30:26;100560.0;;;8.3;54.0
60719;BME280;46567;51.660;5.824;2023-03-14T16:35:26;100570.0;;;8.2;54.5
60719;BME280;46567;51.660;5.824;2023-03-14T16:40:26;100580.0;;;8.1;54.5
60719;BME280;46567;51.660;5.824;2023-03-14T16:45:27;100600.0;;;8.1;54.0
60719;BME280;46567;51.660;5.824;2023-03-14T16:50:26;100620.0;;;8.0;54.0
60719;BME280;46567;51.660;5.824;2023-03-14T16:55:26;100620.0;;;7.9;54.5
60719;BME280;46567;51.660;5.824;2023-03-14T17:00:26;100630.0;;;7.8;54.5
60719;BME280;46567;51.660;5.824;2023-03-14T17:05:26;100640.0;;;7.7;54.5
60719;BME280;46567;51.660;5.824;2023-03-14T17:10:26;100650.0;;;7.6;55.0
60719;BME280;46567;51.660;5.824;2023-03-14T17:15:26;100660.0;;;7.6;55.0
60719;BME280;46567;51.660;5.824;2023-03-14T17:20:26;100670.0;;;7.5;55.5
60719;BME280;46567;51.660;5.824;2023-03-14T17:25:26;100680.0;;;7.5;56.0
60719;BME280;46567;51.660;5.824;2023-03-14T17:30:26;100700.0;;;7.5;56.0
60719;BME280;46567;51.660;5.824;2023-03-14T17:35:26;100710.0;;;7.5;56.5
60719;BME280;46567;51.660;5.824;2023-03-14T17:40:26;100720.0;;;7.5;56.5
60719;BME280;46567;51.660;5.824;2023-03-14T17:45:26;100730.0;;;7.5;57.0
60719;BME280;46567;51.660;5.824;2023-03-14T17:50:26;100740.0;;;7.4;57.0
60719;BME280;46567;51.660;5.824;2023-03-14T17:55:26;100750.0;;;7.4;57.5
60719;BME280;46567;51.660;5.824;2023-03-14T18:00:26;100770.0;;;7.3;58.0
60719;BME280;46567;51.660;5.824;2023-03-14T18:05:26;100780.0;;;7.3;58.0
60719;BME280;46567;51.660;5.824;2023-03-14T18:10:26;100780.0;;;7.2;58.5
60719;BME280;46567;51.660;5.824;2023-03-14T18:15:26;100790.0;;;7.1;58.5
60719;BME280;46567;51.660;5.824;2023-03-14T18:20:26;100790.0;;;7.1;58.5
60719;BME280;46567;51.660;5.824;2023-03-14T18:25:26;100800.0;;;7.0;58.5
60719;BME280;46567;51.660;5.824;2023-03-14T18:30:26;100820.0;;;6.9;58.5
60719;BME280;46567;51.660;5.824;2023-03-14T18:35:26;100820.0;;;6.8;58.5
60719;BME280;46567;51.660;5.824;2023-03-14T18:40:26;100840.0;;;6.7;58.5
60719;BME280;46567;51.660;5.824;2023-03-14T18:45:26;100850.0;;;6.7;59.0
60719;BME280;46567;51.660;5.824;2023-03-14T18:50:26;100860.0;;;6.6;59.0
60719;BME280;46567;51.660;5.824;2023-03-14T18:55:26;100860.0;;;6.5;59.0
60719;BME280;46567;51.660;5.824;2023-03-14T19:00:26;100870.0;;;6.5;59.5
60719;BME280;46567;51.660;5.824;2023-03-14T19:05:26;100880.0;;;6.4;60.0
60719;BME280;46567;51.660;5.824;2023-03-14T19:10:26;100890.0;;;6.4;60.0
60719;BME280;46567;51.660;5.824;2023-03-14T19:15:26;100890.0;;;6.3;60.5
60719;BME280;46567;51.660;5.824;2023-03-14T19:20:26;100900.0;;;6.2;61.0
60719;BME280;46567;51.660;5.824;2023-03-14T19:25:26;100900.0;;;6.1;61.0
60719;BME280;46567;51.660;5.824;2023-03-14T19:30:26;100910.0;;;6.1;61.5
60719;BME280;46567;51.660;5.824;2023-03-14T19:35:26;100920.0;;;6.0;62.0
60719;BME280;46567;51.660;5.824;2023-03-14T19:40:26;100920.0;;;6.0;62.0
60719;BME280;46567;51.660;5.824;2023-03-14T19:45:26;100920.0;;;6.0;62.5
60719;BME280;46567;51.660;5.824;2023-03-14T19:50:27;100920.0;;;5.9;62.5
60719;BME280;46567;51.660;5.824;2023-03-14T19:55:26;100930.0;;;5.8;62.5
60719;BME280;46567;51.660;5.824;2023-03-14T20:00:26;100930.0;;;5.8;63.0
60719;BME280;46567;51.660;5.824;2023-03-14T20:05:26;100930.0;;;5.7;63.0
60719;BME280;46567;51.660;5.824;2023-03-14T20:10:26;100940.0;;;5.5;63.5
60719;BME280;46567;51.660;5.824;2023-03-14T20:15:26;100940.0;;;5.5;63.5
60719;BME280;46567;51.660;5.824;2023-03-14T20:20:26;100940.0;;;5.4;63.5
60719;BME280;46567;51.660;5.824;2023-03-14T20:25:26;100940.0;;;5.4;63.5
60719;BME280;46567;51.660;5.824;2023-03-14T20:30:26;100940.0;;;5.4;63.5
60719;BME280;46567;51.660;5.824;2023-03-14T20:35:26;100960.0;;;5.3;64.0
60719;BME280;46567;51.660;5.824;2023-03-14T20:40:26;100960.0;;;5.2;64.0
60719;BME280;46567;51.660;5.824;2023-03-14T20:45:26;100970.0;;;5.2;64.0
60719;BME280;46567;51.660;5.824;2023-03-14T20:50:26;100980.0;;;5.2;64.0
60719;BME280;46567;51.660;5.824;2023-03-14T20:55:26;100980.0;;;5.1;64.0
60719;BME280;46567;51.660;5.824;2023-03-14T21:00:26;100990.0;;;5.1;64.0
60719;BME280;46567;51.660;5.824;2023-03-14T21:05:26;100990.0;;;5.1;64.5
60719;BME280;46567;51.660;5.824;2023-03-14T21:10:26;100980.0;;;5.1;64.5
60719;BME280;46567;51.660;5.824;2023-03-14T21:15:26;100990.0;;;5.1;64.5
60719;BME280;46567;51.660;5.824;2023-03-14T21:20:26;100990.0;;;5.2;65.0
60719;BME280;46567;51.660;5.824;2023-03-14T21:25:27;100990.0;;;5.2;65.0
60719;BME280;46567;51.660;5.824;2023-03-14T21:30:26;100990.0;;;5.3;65.0
60719;BME280;46567;51.660;5.824;2023-03-14T21:35:26;100990.0;;;5.4;65.0
60719;BME280;46567;51.660;5.824;2023-03-14T21:40:26;100990.0;;;5.4;65.0
60719;BME280;46567;51.660;5.824;2023-03-14T21:45:26;100970.0;;;5.5;65.0
60719;BME280;46567;51.660;5.824;2023-03-14T21:50:26;100960.0;;;5.5;65.0
60719;BME280;46567;51.660;5.824;2023-03-14T21:55:26;100960.0;;;5.5;65.0
60719;BME280;46567;51.660;5.824;2023-03-14T22:00:26;100980.0;;;5.5;65.0
60719;BME280;46567;51.660;5.824;2023-03-14T22:05:26;100970.0;;;5.5;65.5
60719;BME280;46567;51.660;5.824;2023-03-14T22:10:26;101000.0;;;5.5;65.5
60719;BME280;46567;51.660;5.824;2023-03-14T22:15:26;101030.0;;;5.5;66.0
60719;BME280;46567;51.660;5.824;2023-03-14T22:20:26;101020.0;;;5.5;66.5
60719;BME280;46567;51.660;5.824;2023-03-14T22:25:26;101020.0;;;5.5;67.0
60719;BME280;46567;51.660;5.824;2023-03-14T22:30:26;101020.0;;;5.5;67.0
60719;BME280;46567;51.660;5.824;2023-03-14T22:35:26;101020.0;;;5.5;67.5
60719;BME280;46567;51.660;5.824;2023-03-14T22:40:26;101020.0;;;5.5;67.5
60719;BME280;46567;51.660;5.824;2023-03-14T22:45:26;101030.0;;;5.6;68.0
60719;BME280;46567;51.660;5.824;2023-03-14T22:50:26;101040.0;;;5.6;68.5
60719;BME280;46567;51.660;5.824;2023-03-14T22:55:26;101050.0;;;5.6;68.5
60719;BME280;46567;51.660;5.824;2023-03-14T23:00:26;101060.0;;;5.7;69.5
60719;BME280;46567;51.660;5.824;2023-03-14T23:05:26;101070.0;;;5.7;70.5
60719;BME280;46567;51.660;5.824;2023-03-14T23:10:26;101090.0;;;5.6;71.5
60719;BME280;46567;51.660;5.824;2023-03-14T23:15:27;101080.0;;;5.6;73.0
60719;BME280;46567;51.660;5.824;2023-03-14T23:20:27;101080.0;;;5.5;74.0
60719;BME280;46567;51.660;5.824;2023-03-14T23:25:26;101090.0;;;5.5;74.5
60719;BME280;46567;51.660;5.824;2023-03-14T23:30:26;101090.0;;;5.4;75.0
60719;BME280;46567;51.660;5.824;2023-03-14T23:35:26;101100.0;;;5.3;75.5
60719;BME280;46567;51.660;5.824;2023-03-14T23:40:26;101100.0;;;5.2;76.0
60719;BME280;46567;51.660;5.824;2023-03-14T23:45:26;101110.0;;;5.1;77.0
60719;BME280;46567;51.660;5.824;2023-03-14T23:50:26;101120.0;;;5.0;77.5
60719;BME280;46567;51.660;5.824;2023-03-14T23:55:26;101120.0;;;5.0;77.5
